Time;durP1;ratioP1;P1;durP2;ratioP2;P2;SDS_P1;SDS_P2;PMS_P1;PMS_P2;Temp;Humidity;BMP_temperature;BMP_pressure;BME280_temperature;BME280_humidity;BME280_pressure;Samples;Min_cycle;Max_cycle;Signal;HPM_P1;HPM_P2
2022/12/15 00:40:12;;;;;;;42.65;20.17;;;-6.60;99.90;;;-144.05;74.11;125687.94;5034765;28;20037;-79
2022/12/15 00:42:38;;;;;;;49.60;21.55;;;-6.70;99.90;;;-144.05;73.91;125687.94;5016741;28;20025;-80
2022/12/15 00:45:05;;;;;;;43.25;20.45;;;-6.70;99.90;;;-144.05;73.81;125687.94;5034763;28;20040;-79
2022/12/15 00:47:32;;;;;;;49.30;21.27;;;-6.80;99.90;;;-144.05;74.15;125687.94;5016900;28;20022;-79
2022/12/15 01:20:17;;;;;;;42.13;20.33;;;-5.60;99.90;;;-144.05;75.15;125687.94;5034481;28;20051;-80
2022/12/15 01:22:54;;;;;;;53.42;23.55;;;-5.70;99.90;;;-144.05;75.33;125687.94;5034291;28;20089;-78
2022/12/15 01:25:24;;;;;;;48.25;23.52;;;-5.80;99.90;;;-144.05;75.08;125687.94;5034206;28;20038;-79
2022/12/15 01:27:50;;;;;;;49.60;22.48;;;-5.70;99.90;;;-144.05;75.15;125687.94;5016185;28;20155;-80
2022/12/15 01:30:23;;;;;;;50.28;21.88;;;-5.80;99.90;;;-144.05;75.30;125687.94;5016051;28;20029;-76
2022/12/15 01:32:51;;;;;;;50.45;22.95;;;-5.70;99.90;;;-144.05;75.56;125687.94;5033528;28;20040;-80
2022/12/15 01:35:18;;;;;;;54.70;23.63;;;-5.70;99.90;;;-144.05;75.26;125687.94;5033622;28;20038;-79
2022/12/15 01:37:45;;;;;;;52.97;22.63;;;-5.70;99.90;;;-144.05;75.01;125687.94;5015999;28;20085;-78
2022/12/15 01:43:10;;;;;;;50.55;22.60;;;-5.70;99.90;;;-144.05;75.55;125687.94;5041217;28;20033;-78
2022/12/15 01:46:15;;;;;;;48.22;22.90;;;-5.60;99.90;;;-144.05;76.00;125687.94;5040430;28;20029;-79
2022/12/15 01:49:14;;;;;;;51.22;22.65;;;-5.50;99.90;;;-144.05;76.02;125687.94;5017572;28;20515;-79
2022/12/15 01:51:49;;;;;;;55.17;22.02;;;-5.40;99.90;;;-144.05;76.05;125687.94;5033681;28;20048;-80
2022/12/15 01:54:37;;;;;;;53.90;22.10;;;-5.30;99.90;;;-144.05;75.63;125687.94;5015729;28;20107;-80
2022/12/15 01:57:13;;;;;;;53.65;23.25;;;-5.30;99.90;;;-144.05;75.51;125687.94;5034027;28;20465;-79
2022/12/15 01:59:49;;;;;;;54.47;23.90;;;-5.30;99.90;;;-144.05;75.28;125687.94;5033469;28;20021;-80
2022/12/15 02:02:21;;;;;;;52.42;23.60;;;-5.30;99.90;;;-144.05;75.18;125687.94;5033424;28;20548;-78
2022/12/15 02:04:51;;;;;;;47.20;22.60;;;-5.40;99.90;;;-144.05;75.17;125687.94;5015678;28;20045;-80
2022/12/15 02:07:18;;;;;;;45.97;21.77;;;-5.40;99.90;;;-144.05;75.08;125687.94;5033438;28;20074;-79
2022/12/15 02:09:49;;;;;;;43.67;22.30;;;-5.30;99.90;;;-144.05;75.30;125687.94;5015702;28;20366;-79
2022/12/15 02:12:46;;;;;;;49.13;21.10;;;-5.40;99.90;;;-144.05;74.94;125687.94;5015550;28;20091;-80
2022/12/15 02:15:33;;;;;;;51.65;20.55;;;-5.40;99.90;;;-144.05;74.58;125687.94;5015822;28;20492;-79
2022/12/15 02:18:28;;;;;;;48.25;21.77;;;-5.50;99.90;;;-144.05;74.44;125687.94;5032513;28;20107;-79
2022/12/15 02:21:21;;;;;;;44.33;20.00;;;-5.50;99.90;;;-144.05;74.56;125687.94;5033121;28;20029;-79
2022/12/15 02:24:42;;;;;;;43.42;20.00;;;-5.50;99.90;;;-144.05;74.31;125687.94;5033461;28;20025;-81
2022/12/15 02:27:50;;;;;;;48.05;19.77;;;-5.50;99.90;;;-144.05;74.30;125687.94;5032809;28;20030;-81
2022/12/15 02:30:25;;;;;;;45.45;20.23;;;-5.50;99.90;;;-144.05;74.22;125687.94;5015082;28;20120;-80
2022/12/15 02:33:14;;;;;;;43.33;20.38;;;-5.50;99.90;;;-144.05;74.46;125687.94;5032540;28;20026;-80
2022/12/15 02:35:58;;;;;;;46.13;20.30;;;-5.40;99.90;;;-144.05;74.88;125687.94;5015009;28;20053;-79
2022/12/15 02:38:43;;;;;;;46.50;20.77;;;-5.30;99.90;;;-144.05;74.80;125687.94;5015105;28;20134;-79
2022/12/15 02:41:42;;;;;;;37.25;15.80;;;-5.20;99.90;;;-144.05;74.61;125687.94;5033363;28;20499;-79
2022/12/15 02:44:33;;;;;;;50.38;21.05;;;-5.00;99.90;;;-144.05;74.36;125687.94;5038325;28;20085;-80
2022/12/15 02:47:18;;;;;;;48.90;21.08;;;-4.90;99.90;;;-144.05;74.21;125687.94;5019677;28;20041;-79
2022/12/15 02:50:08;;;;;;;46.72;21.25;;;-4.80;99.90;;;-144.05;74.24;125687.94;5016446;28;20034;-81
2022/12/15 02:53:17;;;;;;;46.50;21.10;;;-4.70;99.90;;;-144.05;73.70;125687.94;5014003;28;20477;-80
2022/12/15 02:56:12;;;;;;;49.72;20.27;;;-4.70;99.90;;;-144.05;73.80;125687.94;5031879;28;20117;-79
2022/12/15 02:59:18;;;;;;;39.55;20.42;;;-4.70;99.90;;;-144.05;73.13;125687.94;5033640;28;20096;-79
2022/12/15 03:01:59;;;;;;;42.33;19.10;;;-4.80;99.90;;;-144.05;73.15;125687.94;5014881;28;20033;-79
2022/12/15 03:04:26;;;;;;;41.50;18.23;;;-4.80;99.90;;;-144.05;72.95;125687.94;5033028;28;20026;-80
2022/12/15 03:07:02;;;;;;;40.25;18.00;;;-4.90;99.90;;;-144.05;73.15;125687.94;5036634;28;20030;-80
2022/12/15 03:09:30;;;;;;;39.38;19.83;;;-4.90;99.90;;;-144.05;73.00;125687.94;5019528;28;20026;-80
2022/12/15 03:11:56;;;;;;;42.17;19.90;;;-4.90;99.90;;;-144.05;72.68;125687.94;5038552;28;20022;-81
2022/12/15 03:14:24;;;;;;;38.05;19.02;;;-4.90;99.90;;;-144.05;72.61;125687.94;5020958;28;20029;-82
2022/12/15 03:16:51;;;;;;;41.25;18.60;;;-4.90;99.90;;;-144.05;72.31;125687.94;5020339;28;20116;-80
2022/12/15 03:19:18;;;;;;;34.33;17.38;;;-5.00;99.90;;;-144.05;72.38;125687.94;5019882;28;20033;-80
2022/12/15 03:21:44;;;;;;;42.38;17.73;;;-5.00;99.90;;;-144.05;72.05;125687.94;5035656;28;20543;-79
2022/12/15 03:24:10;;;;;;;45.25;19.17;;;-5.10;99.90;;;-144.05;72.00;125687.94;5035657;28;20073;-79
2022/12/15 03:26:35;;;;;;;39.72;17.38;;;-5.10;99.90;;;-144.05;71.96;125687.94;5017439;28;20060;-80
2022/12/15 03:29:02;;;;;;;39.13;17.55;;;-5.20;99.90;;;-144.05;71.88;125687.94;5017626;28;20034;-80
2022/12/15 03:31:28;;;;;;;41.38;19.45;;;-5.20;99.90;;;-144.05;71.55;125687.94;5017618;28;20033;-78
2022/12/15 03:33:54;;;;;;;35.58;16.65;;;-5.20;99.90;;;-144.05;71.34;125687.94;5035822;28;20029;-80
2022/12/15 03:36:21;;;;;;;41.75;17.65;;;-5.30;99.90;;;-144.05;71.80;125687.94;5018017;28;20063;-79
2022/12/15 03:38:48;;;;;;;40.00;16.30;;;-5.30;99.90;;;-144.05;72.02;125687.94;5035409;28;20045;-80
2022/12/15 03:41:14;;;;;;;35.75;17.08;;;-5.30;99.90;;;-144.05;71.70;125687.94;5034893;28;20047;-80
2022/12/15 03:43:40;;;;;;;37.38;18.05;;;-5.30;99.90;;;-144.05;71.92;125687.94;5017762;28;20049;-79
2022/12/15 03:46:06;;;;;;;41.53;17.77;;;-5.30;99.90;;;-144.05;72.07;125687.94;5017854;28;20022;-80
2022/12/15 03:48:31;;;;;;;39.17;19.30;;;-5.30;99.90;;;-144.05;72.09;125687.94;5035184;28;20334;-80
2022/12/15 03:50:58;;;;;;;40.22;18.67;;;-5.30;99.90;;;-144.05;71.69;125687.94;5017890;28;20110;-80
2022/12/15 03:53:24;;;;;;;36.78;18.27;;;-5.30;99.90;;;-144.05;71.76;125687.94;5035387;28;20102;-79
2022/12/15 03:55:50;;;;;;;39.08;17.15;;;-5.30;99.90;;;-144.05;71.89;125687.94;5017814;28;20036;-80
2022/12/15 03:58:15;;;;;;;37.78;17.75;;;-5.30;99.90;;;-144.05;71.84;125687.94;5035410;28;20026;-79
2022/12/15 04:00:41;;;;;;;36.38;17.40;;;-5.30;99.90;;;-144.05;71.79;125687.94;5017555;28;20485;-79
2022/12/15 04:03:10;;;;;;;38.83;17.73;;;-5.30;99.90;;;-144.05;72.16;125687.94;5035725;28;20049;-80
2022/12/15 04:05:37;;;;;;;38.47;18.55;;;-5.30;99.90;;;-144.05;72.33;125687.94;5017828;28;20033;-80
2022/12/15 04:08:04;;;;;;;39.58;17.83;;;-5.20;99.90;;;-144.05;72.31;125687.94;5017572;28;20116;-80
2022/12/15 04:10:34;;;;;;;42.50;18.65;;;-5.20;99.90;;;-144.05;72.06;125687.94;5017760;28;20498;-80
2022/12/15 04:13:08;;;;;;;41.92;18.30;;;-5.20;99.90;;;-144.05;71.58;125687.94;5035742;28;20056;-79
2022/12/15 04:15:37;;;;;;;37.42;16.80;;;-5.10;99.90;;;-144.05;71.50;125687.94;5017583;28;20503;-79
2022/12/15 04:18:09;;;;;;;37.80;18.02;;;-5.10;99.90;;;-144.05;71.25;125687.94;5035887;28;20037;-78
2022/12/15 04:20:39;;;;;;;36.38;18.23;;;-5.00;99.90;;;-144.05;71.46;125687.94;5017701;28;20139;-81
2022/12/15 04:23:08;;;;;;;37.72;17.40;;;-5.00;99.90;;;-144.05;71.19;125687.94;5018779;28;20566;-80
2022/12/15 05:32:07;;;;;;;36.90;16.58;;;-5.60;99.90;;;-144.05;71.27;125687.94;5036303;28;20507;-79
2022/12/15 05:34:36;;;;;;;37.97;17.40;;;-5.50;99.90;;;-144.05;71.03;125687.94;5017825;28;20092;-81
2022/12/15 05:37:05;;;;;;;42.03;19.15;;;-5.50;99.90;;;-144.05;71.51;125687.94;5017158;28;20053;-81
2022/12/15 05:39:31;;;;;;;41.33;18.73;;;-5.40;99.90;;;-144.05;71.35;125687.94;5035565;28;20088;-82
2022/12/15 05:41:57;;;;;;;45.83;17.27;;;-5.40;99.90;;;-144.05;71.14;125687.94;5035546;28;20029;-81
2022/12/15 05:44:25;;;;;;;39.63;17.58;;;-5.40;99.90;;;-144.05;71.24;125687.94;5035840;28;20026;-83
2022/12/15 05:46:52;;;;;;;34.90;17.75;;;-5.30;99.90;;;-144.05;70.73;125687.94;5017470;28;20105;-82
2022/12/15 05:49:18;;;;;;;39.10;17.65;;;-5.30;99.90;;;-144.05;70.90;125687.94;5016785;28;20021;-80
2022/12/15 05:51:47;;;;;;;34.45;16.10;;;-5.30;99.90;;;-144.05;70.40;125687.94;5035389;28;20026;-82
2022/12/15 05:54:18;;;;;;;40.88;17.85;;;-5.40;99.90;;;-144.05;70.37;125687.94;5018426;28;20025;-81
2022/12/15 05:56:46;;;;;;;38.10;17.58;;;-5.40;99.90;;;-144.05;70.46;125687.94;5017664;28;20033;-81
2022/12/15 05:59:14;;;;;;;34.28;16.42;;;-5.40;99.90;;;-144.05;70.31;125687.94;5018112;28;20533;-81
2022/12/15 06:01:40;;;;;;;42.05;18.05;;;-5.40;99.90;;;-144.05;70.08;125687.94;5035661;28;20104;-82
2022/12/15 06:04:06;;;;;;;39.00;16.73;;;-5.50;99.90;;;-144.05;69.63;125687.94;5035698;28;20053;-83
2022/12/15 06:06:32;;;;;;;40.15;17.40;;;-5.60;99.90;;;-144.05;69.70;125687.94;5017604;28;20128;-80
2022/12/15 06:08:58;;;;;;;32.28;15.38;;;-5.70;99.90;;;-144.05;69.76;125687.94;5036291;28;20025;-80
2022/12/15 06:11:24;;;;;;;32.97;16.33;;;-5.80;99.90;;;-144.05;69.55;125687.94;5017514;28;20405;-81
2022/12/15 06:13:50;;;;;;;36.70;17.45;;;-6.00;99.90;;;-144.05;69.74;125687.94;5035164;28;20025;-80
2022/12/15 06:16:20;;;;;;;34.60;15.95;;;-6.10;99.90;;;-144.05;69.33;125687.94;5018003;28;20025;-83
2022/12/15 06:18:54;;;;;;;34.78;16.45;;;-6.20;99.90;;;-144.05;69.82;125687.94;5017204;28;20044;-80
2022/12/15 06:21:34;;;;;;;34.25;16.60;;;-6.40;99.90;;;-144.05;70.09;125687.94;5017479;28;20083;-81
2022/12/15 06:24:01;;;;;;;33.47;16.58;;;-6.40;99.90;;;-144.05;70.15;125687.94;5018177;28;20409;-80
2022/12/15 06:26:33;;;;;;;35.88;16.65;;;-6.40;99.90;;;-144.05;69.78;125687.94;5023400;28;20033;-79
2022/12/15 06:29:02;;;;;;;36.70;15.98;;;-6.50;99.90;;;-144.05;70.20;125687.94;5023957;28;20021;-80
2022/12/15 06:31:31;;;;;;;33.85;18.83;;;-6.50;99.90;;;-144.05;70.46;125687.94;5037831;28;20029;-80
2022/12/15 06:33:58;;;;;;;45.15;19.40;;;-6.50;99.90;;;-144.05;71.10;125687.94;5018909;28;20236;-83
2022/12/15 06:36:24;;;;;;;40.50;17.27;;;-6.30;99.90;;;-144.05;71.27;125687.94;5019196;28;20065;-81
2022/12/15 06:38:51;;;;;;;39.78;19.83;;;-6.00;99.90;;;-144.05;71.47;125687.94;5017810;28;20033;-79
2022/12/15 06:41:20;;;;;;;36.83;16.92;;;-5.80;99.90;;;-144.05;70.97;125687.94;5035092;28;20044;-80
2022/12/15 06:43:54;;;;;;;39.15;17.45;;;-5.70;99.90;;;-144.05;71.04;125687.94;5037884;28;20029;-83
2022/12/15 06:46:22;;;;;;;39.97;17.60;;;-5.60;99.90;;;-144.05;70.86;125687.94;5033976;28;20051;-78
2022/12/15 06:48:48;;;;;;;44.17;18.95;;;-5.50;99.90;;;-144.05;71.06;125687.94;5034688;28;20036;-80
2022/12/15 06:51:16;;;;;;;37.50;16.83;;;-5.40;99.90;;;-144.05;70.72;125687.94;5017329;28;20059;-79
2022/12/15 06:53:47;;;;;;;40.70;18.35;;;-5.40;99.90;;;-144.05;70.80;125687.94;5035855;28;20037;-81
2022/12/15 06:56:37;;;;;;;40.33;18.05;;;-5.40;99.90;;;-144.05;70.73;125687.94;5035153;28;20328;-79
2022/12/15 06:59:06;;;;;;;40.45;18.00;;;-5.40;99.90;;;-144.05;70.41;125687.94;5035429;28;20033;-80
2022/12/15 07:01:33;;;;;;;35.85;17.73;;;-5.40;99.90;;;-144.05;70.32;125687.94;5018745;28;20493;-81
2022/12/15 07:04:01;;;;;;;42.45;18.60;;;-5.40;99.90;;;-144.05;70.48;125687.94;5019859;28;20034;-82
2022/12/15 07:06:35;;;;;;;37.80;17.90;;;-5.40;99.90;;;-144.05;70.57;125687.94;5037370;28;20401;-81
2022/12/15 07:09:01;;;;;;;38.05;18.17;;;-5.40;99.90;;;-144.05;70.34;125687.94;5036243;28;20021;-78
2022/12/15 07:11:26;;;;;;;39.70;19.13;;;-5.40;99.90;;;-144.05;70.44;125687.94;5032863;28;20036;-76
2022/12/15 07:13:53;;;;;;;40.10;18.02;;;-5.40;99.90;;;-144.05;70.28;125687.94;5014989;28;20033;-77
2022/12/15 07:16:22;;;;;;;41.03;18.15;;;-5.40;99.90;;;-144.05;70.38;125687.94;5015779;28;20052;-79
2022/12/15 07:18:48;;;;;;;38.55;17.75;;;-5.40;99.90;;;-144.05;70.48;125687.94;5034974;28;20040;-81
2022/12/15 07:21:15;;;;;;;35.85;17.45;;;-5.30;99.90;;;-144.05;69.82;125687.94;5016912;28;20120;-85
2022/12/15 07:23:41;;;;;;;40.90;16.30;;;-5.40;99.90;;;-144.05;69.83;125687.94;5044630;28;20030;-80
2022/12/15 07:26:09;;;;;;;47.20;19.20;;;-5.40;99.90;;;-144.05;69.90;125687.94;5033784;28;20048;-80
2022/12/15 07:28:37;;;;;;;34.42;17.80;;;-5.50;99.90;;;-144.05;69.80;125687.94;5033470;28;20412;-81
2022/12/15 07:31:07;;;;;;;36.42;18.50;;;-5.50;99.90;;;-144.05;70.00;125687.94;5033813;28;20110;-79
2022/12/15 07:33:37;;;;;;;41.72;18.98;;;-5.50;99.90;;;-144.05;69.90;125687.94;5033941;28;20030;-78
2022/12/15 07:36:07;;;;;;;37.17;18.42;;;-5.50;99.90;;;-144.05;69.82;125687.94;5029333;28;20025;-81
2022/12/15 07:38:33;;;;;;;35.60;17.60;;;-5.60;99.90;;;-144.05;70.04;125687.94;5034990;28;20021;-79
2022/12/15 07:41:03;;;;;;;47.95;18.63;;;-5.60;99.90;;;-144.05;70.00;125687.94;5017595;28;20056;-80
2022/12/15 07:43:29;;;;;;;40.15;17.23;;;-5.60;99.90;;;-144.05;69.83;125687.94;5017770;28;20029;-80
2022/12/15 07:45:55;;;;;;;35.88;17.33;;;-5.60;99.90;;;-144.05;69.87;125687.94;5020384;28;20033;-79
2022/12/15 07:48:22;;;;;;;35.95;17.05;;;-5.60;99.90;;;-144.05;69.66;125687.94;5017929;28;20547;-81
2022/12/15 07:50:50;;;;;;;40.42;17.58;;;-5.70;99.90;;;-144.05;69.69;125687.94;5035778;28;20044;-79
2022/12/15 07:53:16;;;;;;;37.63;16.85;;;-5.80;99.90;;;-144.05;69.31;125687.94;5038632;28;20034;-80
2022/12/15 07:55:42;;;;;;;32.03;15.98;;;-5.90;99.90;;;-144.05;69.45;125687.94;5038617;28;20033;-80
2022/12/15 07:58:08;;;;;;;36.00;15.68;;;-6.00;99.90;;;-144.05;69.38;125687.94;5019917;28;20508;-79
2022/12/15 08:00:34;;;;;;;33.88;16.95;;;-6.10;99.90;;;-144.05;68.87;125687.94;5020095;28;20036;-81
2022/12/15 08:03:01;;;;;;;39.10;16.30;;;-6.10;99.90;;;-144.05;68.87;125687.94;5037927;28;20025;-80
2022/12/15 08:05:28;;;;;;;35.05;16.80;;;-6.10;99.90;;;-144.05;68.93;125687.94;5038891;28;20144;-81
2022/12/15 08:07:55;;;;;;;38.83;16.80;;;-6.00;99.90;;;-144.05;69.01;125687.94;5037321;28;20025;-78
2022/12/15 08:10:21;;;;;;;41.22;18.15;;;-5.90;99.90;;;-144.05;69.25;125687.94;5037233;28;20423;-78
2022/12/15 08:12:47;;;;;;;38.40;17.67;;;-5.60;99.90;;;-144.05;69.23;125687.94;5038192;28;20040;-78
2022/12/15 08:15:14;;;;;;;45.30;20.08;;;-5.30;99.90;;;-144.05;69.53;125687.94;5037707;28;20434;-82
2022/12/15 08:17:46;;;;;;;47.22;18.92;;;-5.00;99.90;;;-144.05;69.33;125687.94;5018540;28;20087;-79
2022/12/15 08:20:13;;;;;;;43.05;19.45;;;-4.70;99.90;;;-144.05;68.52;125687.94;5036559;28;20497;-79
2022/12/15 08:22:40;;;;;;;43.50;17.85;;;-4.50;99.90;;;-144.05;68.25;125687.94;5036566;28;20026;-80
2022/12/15 08:25:06;;;;;;;41.67;18.85;;;-4.30;99.90;;;-144.05;67.74;125687.94;5036447;28;20017;-80
2022/12/15 08:27:32;;;;;;;36.47;17.35;;;-4.10;99.90;;;-144.05;67.15;125687.94;5035437;28;20104;-79
2022/12/15 08:29:58;;;;;;;31.10;15.45;;;-4.00;99.90;;;-144.05;66.36;125687.94;5035691;28;20172;-79
2022/12/15 08:32:24;;;;;;;32.78;16.83;;;-4.00;99.90;;;-144.05;66.27;125687.94;5018551;28;20029;-80
2022/12/15 08:34:49;;;;;;;32.72;17.27;;;-3.90;99.90;;;-144.05;66.56;125687.94;5036234;28;20443;-78
2022/12/15 08:37:15;;;;;;;37.88;17.20;;;-3.80;99.90;;;-144.05;65.91;125687.94;5018544;28;20116;-78
2022/12/15 08:39:41;;;;;;;37.08;18.17;;;-3.70;99.90;;;-144.05;65.67;125687.94;5017737;28;20025;-79
2022/12/15 08:42:07;;;;;;;33.00;17.48;;;-3.60;99.90;;;-144.05;65.21;125687.94;5018015;28;20026;-80
2022/12/15 08:44:33;;;;;;;37.60;16.77;;;-3.40;99.90;;;-144.05;64.92;125687.94;5035952;28;20026;-80
2022/12/15 08:46:59;;;;;;;33.10;16.35;;;-3.50;99.90;;;-144.05;64.85;125687.94;5035502;28;20029;-79
2022/12/15 08:49:25;;;;;;;32.22;15.77;;;-3.30;99.90;;;-144.05;64.70;125687.94;5035294;28;20031;-79
2022/12/15 08:51:50;;;;;;;34.45;16.33;;;-3.20;99.90;;;-144.05;64.08;125687.94;5035120;28;20083;-78
2022/12/15 08:54:18;;;;;;;33.25;16.65;;;-3.00;99.90;;;-144.05;63.94;125687.94;5034992;28;20033;-78
2022/12/15 08:56:44;;;;;;;37.20;15.90;;;-2.90;99.90;;;-144.05;62.98;125687.94;5017474;28;20053;-79
2022/12/15 08:59:09;;;;;;;32.35;16.90;;;-2.70;99.90;;;-144.05;62.71;125687.94;5035157;28;20037;-78
2022/12/15 09:01:38;;;;;;;36.53;17.05;;;-2.60;99.90;;;-144.05;62.26;125687.94;5034948;28;20057;-77
2022/12/15 09:04:05;;;;;;;35.90;17.38;;;-2.50;99.90;;;-144.05;62.10;125687.94;5017479;28;20106;-79
2022/12/15 09:06:35;;;;;;;34.13;17.38;;;-2.30;99.90;;;-144.05;61.65;125687.94;5035443;28;20026;-79
2022/12/15 09:09:07;;;;;;;40.80;16.85;;;-2.30;99.90;;;-144.05;61.53;125687.94;5046321;28;20056;-78
2022/12/15 09:11:34;;;;;;;37.47;17.73;;;-2.20;99.90;;;-144.05;61.21;125687.94;5026827;28;20036;-78
2022/12/15 09:14:00;;;;;;;36.72;17.33;;;-2.10;99.90;;;-144.05;60.81;125687.94;5036071;28;20489;-78
2022/12/15 09:16:27;;;;;;;36.42;18.02;;;-2.10;99.90;;;-144.05;60.20;125687.94;5035789;28;20030;-80
2022/12/15 09:18:57;;;;;;;39.10;18.10;;;-2.00;99.90;;;-144.05;60.27;125687.94;5035714;28;20041;-80
2022/12/15 09:21:28;;;;;;;36.25;16.95;;;-2.00;99.90;;;-144.05;60.05;125687.94;5017342;28;20075;-78
2022/12/15 09:24:00;;;;;;;32.10;15.65;;;-2.10;99.90;;;-144.05;60.30;125687.94;5036334;28;20430;-80
2022/12/15 09:26:30;;;;;;;36.53;17.75;;;-2.10;99.90;;;-144.05;60.43;125687.94;5035516;28;20040;-78
2022/12/15 09:28:56;;;;;;;36.13;17.88;;;-2.10;99.90;;;-144.05;60.52;125687.94;5016792;28;20047;-80
2022/12/15 09:31:35;;;;;;;31.45;16.58;;;-1.90;99.90;;;-144.05;59.98;125687.94;5017545;28;20025;-78
2022/12/15 09:34:02;;;;;;;31.08;16.70;;;-1.70;99.90;;;-144.05;59.67;125687.94;5035436;28;20037;-77
2022/12/15 09:36:31;;;;;;;35.80;16.33;;;-1.60;99.90;;;-144.05;58.94;125687.94;5034835;28;20511;-78
2022/12/15 09:38:58;;;;;;;32.97;17.35;;;-1.50;99.90;;;-144.05;58.75;125687.94;5016554;28;20044;-78
2022/12/15 09:41:30;;;;;;;35.63;17.67;;;-1.40;99.90;;;-144.05;58.97;125687.94;5034982;28;20034;-78
2022/12/15 09:44:16;;;;;;;37.25;17.92;;;-1.20;99.90;;;-144.05;58.39;125687.94;5017218;28;20025;-79
2022/12/15 09:47:17;;;;;;;35.30;17.42;;;-1.10;99.90;;;-144.05;58.27;125687.94;5034658;28;20543;-79
2022/12/15 09:50:08;;;;;;;35.33;17.17;;;-1.00;99.90;;;-144.05;58.33;125687.94;5033906;28;20059;-79
2022/12/15 09:52:50;;;;;;;32.85;16.73;;;-0.70;99.90;;;-144.05;57.90;125687.94;5016026;28;20037;-79
2022/12/15 09:55:28;;;;;;;37.67;17.35;;;-0.60;99.90;;;-144.05;57.79;125687.94;5040849;28;20033;-78
2022/12/15 09:58:51;;;;;;;32.47;18.17;;;-0.60;99.90;;;-144.05;57.41;125687.94;5017976;28;20043;-80
2022/12/15 10:01:51;;;;;;;36.08;17.15;;;-0.40;99.90;;;-144.05;56.67;125687.94;5009706;28;20129;-81
2022/12/15 10:05:11;;;;;;;32.78;16.77;;;-0.20;99.90;;;-144.05;55.84;125687.94;5034205;28;20503;-77
2022/12/15 10:07:45;;;;;;;37.03;18.25;;;-0.20;99.90;;;-144.05;55.74;125687.94;4999020;28;20041;-78
2022/12/15 10:10:56;;;;;;;40.83;18.85;;;0.00;99.90;;;-144.05;55.41;125687.94;5016138;28;20029;-79
2022/12/15 10:13:55;;;;;;;35.40;17.10;;;0.20;99.90;;;-144.05;54.89;125687.94;5033535;28;20040;-79
2022/12/15 10:16:33;;;;;;;35.17;17.00;;;0.40;99.90;;;-144.05;54.46;125687.94;5015602;28;20044;-78
2022/12/15 10:19:25;;;;;;;35.38;17.65;;;0.30;99.90;;;-144.05;54.41;125687.94;5033137;28;20041;-78
2022/12/15 10:21:51;;;;;;;38.20;18.15;;;0.40;99.90;;;-144.05;55.25;125687.94;5032994;28;20109;-78
2022/12/15 10:24:21;;;;;;;37.95;18.10;;;0.40;99.90;;;-144.05;55.28;125687.94;5015349;28;20061;-77
2022/12/15 10:27:45;;;;;;;32.17;16.65;;;0.60;99.90;;;-144.05;55.49;125687.94;5033113;28;20432;-78
2022/12/15 10:30:14;;;;;;;30.30;16.25;;;0.60;99.90;;;-144.05;55.08;125687.94;5032940;28;20084;-77
2022/12/15 10:33:24;;;;;;;31.63;17.30;;;0.80;99.90;;;-144.05;54.71;125687.94;5033552;28;20097;-79
2022/12/15 10:35:54;;;;;;;31.73;16.13;;;1.00;99.90;;;-144.05;54.47;125687.94;5015635;28;20044;-77
2022/12/15 10:38:44;;;;;;;33.67;16.15;;;1.00;99.90;;;-144.05;53.73;125687.94;5015011;28;20065;-78
2022/12/15 10:41:22;;;;;;;31.90;15.90;;;1.10;99.90;;;-144.05;53.63;125687.94;5033122;28;20033;-78
2022/12/15 10:43:53;;;;;;;32.72;16.67;;;1.30;99.90;;;-144.05;53.12;125687.94;5033675;28;20022;-78
2022/12/15 10:46:26;;;;;;;33.38;15.45;;;1.30;99.90;;;-144.05;53.21;125687.94;5015631;28;20345;-79
2022/12/15 10:49:04;;;;;;;30.15;15.25;;;1.50;99.90;;;-144.05;52.78;125687.94;5015007;28;20087;-79
2022/12/15 10:51:48;;;;;;;36.50;16.98;;;1.50;99.90;;;-144.05;53.05;125687.94;5015286;28;20037;-77
2022/12/15 10:54:17;;;;;;;29.77;14.95;;;1.60;99.90;;;-144.05;52.30;125687.94;5032900;28;20120;-78
2022/12/15 10:57:14;;;;;;;29.25;15.48;;;1.60;99.90;;;-144.05;52.21;125687.94;5032530;28;20056;-79
2022/12/15 10:59:40;;;;;;;35.30;15.85;;;1.80;99.90;;;-144.05;51.31;125687.94;5032105;28;20033;-78
2022/12/15 11:02:22;;;;;;;31.52;15.13;;;2.00;99.90;;;-144.05;50.99;125687.94;5032344;28;20464;-78
2022/12/15 11:05:15;;;;;;;28.50;16.10;;;2.10;99.90;;;-144.05;51.55;125687.94;5039229;28;20017;-79
2022/12/15 11:07:47;;;;;;;28.70;15.43;;;2.30;99.90;;;-144.05;51.23;125687.94;5014532;28;20118;-78
2022/12/15 11:10:27;;;;;;;27.63;15.40;;;2.30;99.90;;;-144.05;51.46;125687.94;5031954;28;20104;-77
2022/12/15 11:13:14;;;;;;;33.33;16.30;;;2.30;99.90;;;-144.05;50.31;125687.94;5031896;28;20397;-79
2022/12/15 11:15:50;;;;;;;29.90;14.90;;;2.40;99.90;;;-144.05;51.28;125687.94;5033455;28;20044;-78
2022/12/15 11:19:06;;;;;;;31.98;15.82;;;2.40;99.90;;;-144.05;50.85;125687.94;5019994;28;20026;-78
2022/12/15 11:21:46;;;;;;;22.57;11.43;;;2.60;99.90;;;-144.05;51.23;125687.94;5035699;28;20025;-79
2022/12/15 11:24:28;;;;;;;29.52;16.02;;;2.60;99.90;;;-144.05;51.08;125687.94;5032556;28;20397;-78
2022/12/15 11:27:29;;;;;;;31.00;16.08;;;2.70;99.90;;;-144.05;50.77;125687.94;5016829;28;20036;-78
2022/12/15 11:30:13;;;;;;;30.63;14.93;;;2.80;99.90;;;-144.05;49.80;125687.94;5037748;28;20033;-77
2022/12/15 11:32:47;;;;;;;32.45;15.45;;;2.90;99.90;;;-144.05;50.05;125687.94;5038861;28;20095;-77
2022/12/15 11:35:23;;;;;;;34.63;14.93;;;3.00;99.90;;;-144.05;50.08;125687.94;5041174;28;20032;-79
2022/12/15 11:38:16;;;;;;;27.15;14.52;;;3.10;99.90;;;-144.05;49.81;125687.94;5039866;28;20030;-79
2022/12/15 11:40:43;;;;;;;26.25;14.07;;;3.00;99.90;;;-144.05;49.28;125687.94;5038634;28;20041;-77
2022/12/15 11:44:28;;;;;;;28.60;14.65;;;3.10;99.90;;;-144.05;48.50;125687.94;5021018;28;20168;-79
2022/12/15 11:48:08;;;;;;;28.55;13.93;;;3.10;99.90;;;-144.05;49.31;125687.94;5020746;28;20431;-78
2022/12/15 11:51:03;;;;;;;28.23;13.60;;;3.00;99.90;;;-144.05;49.43;125687.94;4972667;28;20473;-79
2022/12/15 11:54:06;;;;;;;30.52;15.27;;;3.00;99.90;;;-144.05;48.99;125687.94;5038244;28;20404;-79
2022/12/15 11:56:41;;;;;;;34.50;16.52;;;3.00;99.90;;;-144.05;49.13;125687.94;5020127;28;20025;-78
2022/12/15 11:59:25;;;;;;;26.42;15.20;;;3.00;99.90;;;-144.05;49.61;125687.94;5037250;28;20534;-79
2022/12/15 12:02:48;;;;;;;28.95;15.20;;;3.00;99.90;;;-144.05;49.67;125687.94;5018764;28;20404;-78
2022/12/15 12:05:55;;;;;;;32.15;15.98;;;3.00;99.90;;;-144.05;49.55;125687.94;5036614;28;20140;-79
2022/12/15 12:09:12;;;;;;;29.02;15.40;;;2.90;99.90;;;-144.05;49.27;125687.94;4969183;28;20048;-78
2022/12/15 12:12:19;;;;;;;30.85;15.32;;;2.90;99.90;;;-144.05;49.72;125687.94;5036709;28;20036;-78
2022/12/15 12:15:00;;;;;;;31.33;15.73;;;3.10;99.90;;;-144.05;49.67;125687.94;5016778;28;20137;-78
2022/12/15 12:17:54;;;;;;;30.08;15.45;;;3.20;99.90;;;-144.05;48.76;125687.94;5035992;28;20047;-80
2022/12/15 12:20:37;;;;;;;29.15;15.07;;;3.20;99.90;;;-144.05;49.28;125687.94;5018516;28;20036;-78
2022/12/15 12:23:38;;;;;;;28.73;15.48;;;3.20;99.90;;;-144.05;49.63;125687.94;5018402;28;20029;-79
2022/12/15 12:26:31;;;;;;;27.13;14.93;;;3.30;99.90;;;-144.05;49.50;125687.94;5036707;28;20131;-78
2022/12/15 12:29:10;;;;;;;28.83;14.27;;;3.30;99.90;;;-144.05;49.19;125687.94;5036455;28;20029;-80
2022/12/15 12:32:19;;;;;;;32.00;15.52;;;3.40;99.90;;;-144.05;49.19;125687.94;5018795;28;20103;-79
2022/12/15 12:35:25;;;;;;;29.98;15.55;;;3.60;99.90;;;-144.05;48.73;125687.94;5036969;28;20408;-78
2022/12/15 12:38:10;;;;;;;28.40;15.15;;;3.50;99.90;;;-144.05;48.71;125687.94;5018051;28;20036;-78
2022/12/15 12:40:39;;;;;;;28.53;15.07;;;3.70;99.90;;;-144.05;48.28;125687.94;5038895;28;20344;-79
2022/12/15 12:43:09;;;;;;;32.30;14.73;;;3.60;99.90;;;-144.05;48.59;125687.94;5041862;28;20370;-79